Akiachak, Alaska
Current Conditions -  °F | °C
As of 4:56 AM on Saturday 20 Dec 2014 (Local Time) from PFKW Reporting Station
Clear Clear  
Wind Chill: -8°   Ceiling: Unl
Heat Index:   Visibility: 10mi
Dew Point:   Wind: 10mph
Humidity: 84%   Direction: 30°NNE
Pressure: 29.07"   Gusts: NA
Location:  60.91°N, 161.44°W
Report Text: PFKW 201356Z AUTO 03009KT 10SM CLR M14/M16 A2907 RMK AO2 SLP846 T11391161 FZRANO
Loading
Personal Weather Stations






























Interactive Weather Map New forecast layout! Learn more

10-Day Weather Forecast

Advertisements
Track Severe Weather on mobile